createdAt,value
2022-08-10T00:01:36.330Z,0.70
2022-08-10T00:04:03.769Z,1.10
2022-08-10T00:06:30.775Z,1.17
2022-08-10T00:08:58.299Z,1.10
2022-08-10T00:11:25.854Z,1.20
2022-08-10T00:13:52.934Z,1.20
2022-08-10T00:16:20.108Z,1.15
2022-08-10T00:18:47.085Z,1.20
2022-08-10T00:21:14.152Z,1.20
2022-08-10T00:23:41.143Z,1.05
2022-08-10T00:26:08.434Z,1.05
2022-08-10T00:28:35.411Z,1.30
2022-08-10T00:31:02.505Z,1.10
2022-08-10T00:33:29.585Z,1.10
2022-08-10T00:35:56.577Z,1.13
2022-08-10T00:38:24.000Z,1.30
2022-08-10T00:40:51.226Z,1.10
2022-08-10T00:43:23.880Z,1.30
2022-08-10T00:45:59.362Z,1.40
2022-08-10T00:48:31.078Z,1.20
2022-08-10T00:51:00.175Z,1.50
2022-08-10T00:53:28.772Z,1.30
2022-08-10T00:57:12.933Z,1.38
2022-08-10T00:58:44.396Z,1.30
2022-08-10T01:02:07.366Z,1.88
2022-08-10T01:04:39.651Z,1.70
2022-08-10T01:07:21.416Z,1.50
2022-08-10T01:10:20.411Z,1.58
2022-08-10T01:13:11.114Z,1.20
2022-08-10T01:16:03.830Z,1.60
2022-08-10T01:18:49.091Z,1.70
2022-08-10T01:21:28.297Z,1.40
2022-08-10T01:24:26.368Z,1.42
2022-08-10T01:27:11.343Z,1.50
2022-08-10T01:29:59.710Z,1.50
2022-08-10T01:32:57.619Z,1.40
2022-08-10T01:35:40.210Z,1.63
2022-08-10T01:38:23.691Z,1.42
2022-08-10T01:41:00.800Z,1.50
2022-08-10T01:43:31.702Z,1.77
2022-08-10T01:46:01.420Z,1.90
2022-08-10T01:48:44.030Z,1.77
2022-08-10T01:51:32.689Z,1.90
2022-08-10T01:54:12.576Z,1.90
2022-08-10T01:56:46.756Z,1.70
2022-08-10T01:59:41.714Z,1.60
2022-08-10T02:02:23.445Z,1.50
2022-08-10T02:04:53.944Z,1.65
2022-08-10T02:07:27.712Z,1.80
2022-08-10T02:10:02.881Z,1.60
2022-08-10T02:12:33.801Z,1.73
2022-08-10T02:15:07.160Z,2.10
2022-08-10T02:18:00.282Z,1.60
2022-08-10T02:20:39.815Z,1.60
2022-08-10T02:23:13.164Z,1.98
2022-08-10T02:25:43.833Z,1.80
2022-08-10T02:28:27.383Z,1.75
2022-08-10T02:31:06.070Z,1.70
2022-08-10T02:33:37.890Z,1.90
2022-08-10T02:36:09.791Z,2.03
2022-08-10T02:38:59.590Z,1.80
2022-08-10T02:42:18.144Z,1.58
2022-08-10T02:45:25.441Z,1.80
2022-08-10T02:48:05.811Z,1.92
2022-08-10T02:50:41.792Z,2.00
2022-08-10T02:53:54.787Z,1.50
2022-08-10T02:56:20.035Z,1.95
2022-08-10T02:59:23.601Z,1.77
2022-08-10T03:01:55.725Z,2.00
2022-08-10T03:04:55.673Z,2.00
2022-08-10T03:07:42.893Z,1.73
2022-08-10T03:10:20.423Z,2.05
2022-08-10T03:12:56.630Z,1.98
2022-08-10T03:15:26.183Z,2.03
2022-08-10T03:17:56.942Z,2.00
2022-08-10T03:20:37.247Z,1.95
2022-08-10T03:23:26.899Z,1.83
2022-08-10T03:25:57.703Z,1.85
2022-08-10T03:28:32.016Z,1.90
2022-08-10T03:31:02.071Z,2.10
2022-08-10T03:33:39.827Z,2.10
2022-08-10T03:36:43.462Z,2.10
2022-08-10T03:38:55.487Z,2.08
2022-08-10T03:41:53.529Z,2.25
2022-08-10T03:44:29.787Z,1.63
2022-08-10T03:47:02.062Z,2.20
2022-08-10T03:49:32.074Z,2.10
2022-08-10T03:52:00.059Z,1.77
2022-08-10T03:54:28.461Z,2.00
2022-08-10T03:56:55.769Z,1.83
2022-08-10T03:59:23.247Z,2.05
2022-08-10T04:02:45.244Z,1.88
2022-08-10T04:04:38.632Z,2.72
2022-08-10T04:07:06.207Z,2.08
2022-08-10T04:09:53.680Z,1.80
2022-08-10T04:12:24.516Z,1.92
2022-08-10T04:14:53.219Z,1.83
2022-08-10T04:17:57.063Z,1.83
2022-08-10T04:20:34.508Z,2.00
2022-08-10T04:23:08.925Z,2.17
2022-08-10T04:25:38.684Z,2.13
2022-08-10T04:28:08.845Z,2.80
2022-08-10T04:30:37.631Z,1.60
2022-08-10T04:33:08.038Z,2.42
2022-08-10T04:35:37.045Z,2.30
2022-08-10T04:38:05.749Z,1.95
2022-08-10T04:40:32.886Z,2.50
2022-08-10T04:43:10.495Z,3.67
2022-08-10T04:45:49.963Z,2.72
2022-08-10T04:48:42.602Z,2.08
2022-08-10T04:51:17.705Z,2.25
2022-08-10T04:54:03.747Z,2.47
2022-08-10T04:56:39.425Z,2.28
2022-08-10T04:59:09.810Z,2.58
2022-08-10T05:02:22.910Z,2.55
2022-08-10T05:04:36.676Z,2.50
2022-08-10T05:07:12.211Z,3.05
2022-08-10T05:10:01.860Z,2.58
2022-08-10T05:12:30.621Z,2.20
2022-08-10T05:14:57.739Z,2.47
2022-08-10T05:17:24.971Z,1.92
2022-08-10T05:20:04.120Z,2.25
2022-08-10T05:22:40.640Z,2.08
2022-08-10T05:25:15.234Z,2.35
2022-08-10T05:27:43.961Z,2.38
2022-08-10T05:30:18.413Z,2.70
2022-08-10T05:32:57.571Z,2.40
2022-08-10T05:35:28.356Z,2.67
2022-08-10T05:38:12.089Z,2.13
2022-08-10T05:40:46.336Z,2.40
2022-08-10T05:43:18.149Z,2.25
2022-08-10T05:46:19.211Z,2.47
2022-08-10T05:48:54.900Z,2.60
2022-08-10T05:51:23.190Z,2.65
2022-08-10T05:54:02.288Z,2.40
2022-08-10T05:56:53.423Z,2.83
2022-08-10T06:00:29.440Z,3.28
2022-08-10T06:02:41.649Z,2.42
2022-08-10T06:05:17.663Z,2.72
2022-08-10T06:08:26.915Z,2.65
2022-08-10T06:12:23.600Z,2.72
2022-08-10T06:14:13.058Z,2.53
2022-08-10T06:16:45.127Z,2.35
2022-08-10T06:19:14.658Z,2.53
2022-08-10T06:21:55.331Z,2.80
2022-08-10T06:25:04.689Z,2.17
2022-08-10T06:27:34.771Z,2.90
2022-08-10T06:30:20.185Z,2.83
2022-08-10T06:32:55.632Z,2.30
2022-08-10T06:35:31.895Z,2.45
2022-08-10T06:38:03.840Z,2.90
2022-08-10T06:40:39.309Z,2.35
2022-08-10T06:43:13.516Z,2.70
2022-08-10T06:46:07.622Z,2.45
2022-08-10T06:48:44.057Z,2.43
2022-08-10T06:51:20.375Z,2.42
2022-08-10T06:53:54.550Z,2.58
2022-08-10T06:56:36.282Z,2.45
2022-08-10T06:59:22.073Z,2.10
2022-08-10T07:02:08.055Z,2.15
2022-08-10T07:04:54.907Z,2.05
2022-08-10T07:07:27.904Z,2.20
2022-08-10T07:09:57.657Z,2.50
2022-08-10T07:12:25.943Z,2.28
2022-08-10T07:14:55.443Z,2.03
2022-08-10T07:17:26.530Z,1.90
2022-08-10T07:19:58.408Z,2.00
2022-08-10T07:23:27.018Z,1.88
2022-08-10T07:25:21.651Z,2.03
2022-08-10T07:27:59.914Z,2.22
2022-08-10T07:30:35.991Z,1.95
2022-08-10T07:33:06.143Z,2.03
2022-08-10T07:35:42.475Z,1.80
2022-08-10T07:38:27.015Z,2.38
2022-08-10T07:40:58.243Z,1.90
2022-08-10T07:43:31.170Z,1.77
2022-08-10T07:46:01.925Z,1.85
2022-08-10T07:48:42.207Z,2.00
2022-08-10T07:51:11.152Z,2.50
2022-08-10T07:53:45.358Z,2.08
2022-08-10T07:56:38.486Z,1.90
2022-08-10T07:59:10.422Z,1.83
2022-08-10T08:01:48.356Z,1.75
2022-08-10T08:04:19.431Z,1.48
2022-08-10T08:06:48.925Z,2.10
2022-08-10T08:09:16.115Z,2.10
2022-08-10T08:11:44.686Z,2.00
2022-08-10T08:14:15.314Z,2.00
2022-08-10T08:16:47.313Z,2.38
2022-08-10T08:19:35.858Z,2.10
2022-08-10T08:24:06.553Z,2.10
2022-08-10T08:24:57.375Z,1.55
2022-08-10T08:27:27.284Z,1.90
2022-08-10T08:29:55.665Z,2.05
2022-08-10T08:32:28.192Z,1.95
2022-08-10T08:35:03.469Z,2.20
2022-08-10T08:38:31.200Z,1.60
2022-08-10T08:40:37.077Z,1.67
2022-08-10T08:43:32.449Z,1.92
2022-08-10T08:50:04.468Z,2.08
2022-08-10T08:52:35.756Z,1.98
2022-08-10T08:56:03.841Z,1.88
2022-08-10T08:59:05.251Z,1.77
2022-08-10T09:02:04.987Z,1.80
2022-08-10T09:05:21.975Z,2.08
2022-08-10T09:08:34.159Z,1.70
2022-08-10T09:11:19.158Z,1.95
2022-08-10T09:14:08.952Z,1.80
2022-08-10T09:16:57.696Z,1.75
2022-08-10T09:19:49.725Z,1.63
2022-08-10T09:22:34.279Z,2.03
2022-08-10T09:25:18.421Z,1.90
2022-08-10T09:28:11.768Z,1.90
2022-08-10T09:31:18.710Z,1.95
2022-08-10T09:36:19.321Z,1.60
2022-08-10T09:37:39.299Z,2.30
2022-08-10T09:40:59.274Z,2.22
2022-08-10T09:44:08.829Z,1.67
2022-08-10T09:47:19.995Z,1.92
2022-08-10T09:50:04.347Z,2.03
2022-08-10T09:52:58.950Z,1.88
2022-08-10T09:56:17.953Z,1.83
2022-08-10T09:59:27.196Z,2.03
2022-08-10T10:02:35.566Z,2.05
2022-08-10T10:05:59.500Z,2.00
2022-08-10T10:09:10.287Z,1.80
2022-08-10T10:12:05.276Z,2.20
2022-08-10T10:15:24.481Z,1.83
2022-08-10T10:18:22.300Z,2.20
2022-08-10T10:21:01.628Z,2.22
2022-08-10T10:24:21.155Z,2.20
2022-08-10T10:27:15.996Z,1.83
2022-08-10T10:29:56.798Z,2.20
2022-08-10T10:32:57.823Z,2.08
2022-08-10T10:35:44.155Z,1.83
2022-08-10T10:38:14.044Z,1.90
2022-08-10T10:41:03.232Z,2.03
2022-08-10T10:44:33.277Z,2.00
2022-08-10T10:47:55.434Z,1.90
2022-08-10T10:50:56.505Z,2.20
2022-08-10T10:53:47.197Z,2.28
2022-08-10T10:56:35.439Z,1.73
2022-08-10T10:59:56.345Z,2.00
2022-08-10T11:02:53.168Z,2.10
2022-08-10T11:06:01.312Z,1.92
2022-08-10T11:08:44.438Z,1.77
2022-08-10T11:11:59.850Z,2.00
2022-08-10T11:14:39.259Z,1.92
2022-08-10T11:17:22.559Z,2.30
2022-08-10T11:20:04.110Z,1.88
2022-08-10T11:22:53.337Z,2.08
2022-08-10T11:25:31.853Z,2.17
2022-08-10T11:28:16.288Z,1.88
2022-08-10T11:30:52.660Z,2.00
2022-08-10T11:34:47.757Z,2.00
2022-08-10T11:36:42.946Z,2.20
2022-08-10T11:39:28.922Z,2.00
2022-08-10T11:42:16.495Z,1.90
2022-08-10T11:45:02.311Z,1.77
2022-08-10T11:47:53.868Z,1.98
2022-08-10T11:50:39.552Z,1.80
2022-08-10T11:53:39.036Z,2.03
2022-08-10T11:56:12.619Z,1.77
2022-08-10T11:59:02.021Z,1.88
2022-08-10T12:01:47.651Z,1.85
2022-08-10T12:04:16.820Z,1.45
2022-08-10T12:07:01.850Z,1.67
2022-08-10T12:10:10.357Z,1.90
2022-08-10T12:12:20.257Z,1.50
2022-08-10T12:15:03.416Z,1.75
2022-08-10T12:17:38.132Z,1.50
2022-08-10T12:20:08.395Z,1.98
2022-08-10T12:22:57.475Z,1.60
2022-08-10T12:25:57.483Z,1.38
2022-08-10T12:29:15.650Z,1.65
2022-08-10T12:32:04.822Z,1.60
2022-08-10T12:34:50.885Z,1.60
2022-08-10T12:37:28.671Z,1.45
2022-08-10T12:40:37.039Z,1.70
2022-08-10T12:44:06.990Z,1.58
2022-08-10T12:46:18.429Z,1.70
2022-08-10T12:49:16.892Z,1.30
2022-08-10T12:51:57.373Z,1.60
2022-08-10T12:54:32.292Z,1.30
2022-08-10T12:57:10.122Z,1.50
2022-08-10T12:59:43.809Z,1.63
2022-08-10T13:02:26.469Z,1.60
2022-08-10T13:04:58.234Z,1.10
2022-08-10T13:08:24.345Z,1.10
2022-08-10T13:10:23.146Z,1.27
2022-08-10T13:12:56.880Z,1.20
2022-08-10T13:15:49.615Z,1.27
2022-08-10T13:18:38.416Z,1.17
2022-08-10T13:21:20.725Z,1.02
2022-08-10T13:24:09.619Z,1.30
2022-08-10T13:27:10.883Z,1.20
2022-08-10T13:29:48.058Z,1.13
2022-08-10T13:32:28.130Z,1.10
2022-08-10T13:35:00.900Z,1.13
2022-08-10T13:37:31.108Z,1.08
2022-08-10T13:40:01.923Z,1.10
2022-08-10T13:42:45.734Z,1.20
2022-08-10T13:45:20.429Z,1.10
2022-08-10T13:47:52.812Z,1.30
2022-08-10T13:50:33.499Z,1.13
2022-08-10T13:55:54.805Z,1.10
2022-08-10T13:58:38.163Z,1.13
2022-08-10T14:01:13.975Z,1.23
2022-08-10T14:03:45.771Z,1.10
2022-08-10T14:06:15.947Z,0.95
2022-08-10T14:08:51.519Z,1.40
2022-08-10T14:11:21.357Z,1.20
2022-08-10T14:14:18.322Z,1.08
2022-08-10T14:16:47.602Z,1.23
2022-08-10T14:19:26.180Z,1.23
2022-08-10T14:21:55.483Z,1.08
2022-08-10T14:24:26.305Z,1.13
2022-08-10T14:27:05.657Z,1.60
2022-08-10T14:29:47.348Z,1.10
2022-08-10T14:32:23.578Z,1.17
2022-08-10T14:36:14.895Z,1.13
2022-08-10T14:38:05.487Z,1.17
2022-08-10T14:40:44.522Z,1.15
2022-08-10T14:43:28.464Z,1.13
2022-08-10T14:46:06.841Z,1.10
2022-08-10T14:48:43.419Z,1.10
2022-08-10T14:51:16.072Z,1.20
2022-08-10T14:53:50.371Z,1.10
2022-08-10T14:56:44.761Z,1.10
2022-08-10T14:59:40.619Z,0.93
2022-08-10T15:02:38.276Z,1.02
2022-08-10T15:05:13.492Z,1.20
2022-08-10T15:08:06.344Z,1.00
2022-08-10T15:10:33.873Z,0.90
2022-08-10T15:13:34.603Z,1.10
2022-08-10T15:16:13.746Z,1.00
2022-08-10T15:18:58.497Z,1.00
2022-08-10T15:21:42.996Z,0.90
2022-08-10T15:24:37.755Z,1.20
2022-08-10T15:27:08.975Z,1.20
2022-08-10T15:29:57.745Z,1.15
2022-08-10T15:32:56.651Z,1.13
2022-08-10T15:35:46.242Z,1.10
2022-08-10T15:38:23.034Z,1.20
2022-08-10T15:41:07.821Z,1.20
2022-08-10T15:43:44.749Z,0.80
2022-08-10T15:46:48.861Z,1.38
2022-08-10T15:49:32.977Z,0.70
2022-08-10T15:52:39.423Z,1.02
2022-08-10T15:55:42.394Z,1.10
2022-08-10T15:58:18.017Z,1.05
2022-08-10T16:00:57.251Z,0.90
2022-08-10T16:03:46.547Z,0.90
2022-08-10T16:06:33.114Z,1.00
2022-08-10T16:10:24.331Z,1.00
2022-08-10T16:12:15.194Z,1.05
2022-08-10T16:14:48.119Z,1.17
2022-08-10T16:17:18.631Z,0.90
2022-08-10T16:19:59.084Z,1.90
2022-08-10T16:22:35.653Z,2.97
2022-08-10T16:25:14.359Z,2.42
2022-08-10T16:27:43.844Z,1.45
2022-08-10T16:30:12.180Z,1.35
2022-08-10T16:32:40.418Z,1.13
2022-08-10T16:35:10.299Z,1.00
2022-08-10T16:37:58.911Z,1.23
2022-08-10T16:40:29.896Z,1.15
2022-08-10T16:43:03.451Z,1.20
2022-08-10T16:45:48.135Z,1.20
2022-08-10T16:48:48.664Z,1.20
2022-08-10T16:51:14.148Z,1.02
2022-08-10T16:53:48.335Z,1.20
2022-08-10T16:56:17.321Z,1.35
2022-08-10T16:58:54.841Z,1.20
2022-08-10T17:01:25.962Z,1.15
2022-08-10T17:04:09.101Z,1.20
2022-08-10T17:06:55.883Z,1.02
2022-08-10T17:09:32.007Z,1.00
2022-08-10T17:12:06.074Z,1.10
2022-08-10T17:14:33.421Z,1.30
2022-08-10T17:17:08.360Z,1.10
2022-08-10T17:19:47.752Z,1.60
2022-08-10T17:22:21.888Z,1.30
2022-08-10T17:25:21.459Z,1.10
2022-08-10T17:28:05.292Z,0.90
2022-08-10T17:30:57.278Z,1.00
2022-08-10T17:33:30.691Z,0.88
2022-08-10T17:36:04.155Z,0.90
2022-08-10T17:38:36.991Z,1.17
2022-08-10T17:41:12.472Z,1.02
2022-08-10T17:43:46.501Z,1.60
2022-08-10T17:46:41.368Z,1.20
2022-08-10T17:49:12.511Z,1.30
2022-08-10T17:51:48.409Z,1.63
2022-08-10T17:54:45.904Z,1.13
2022-08-10T17:57:18.704Z,1.70
2022-08-10T17:59:49.623Z,1.30
2022-08-10T18:02:28.187Z,1.30
2022-08-10T18:04:58.747Z,1.52
2022-08-10T18:07:38.632Z,1.45
2022-08-10T18:10:11.376Z,1.10
2022-08-10T18:12:47.461Z,1.23
2022-08-10T18:15:19.756Z,1.30
2022-08-10T18:17:58.293Z,1.10
2022-08-10T18:20:37.205Z,1.10
2022-08-10T18:23:07.841Z,1.38
2022-08-10T18:25:39.482Z,1.50
2022-08-10T18:28:12.437Z,1.60
2022-08-10T18:30:48.100Z,2.40
2022-08-10T18:33:18.823Z,2.05
2022-08-10T18:35:47.949Z,1.40
2022-08-10T18:38:17.317Z,1.55
2022-08-10T18:40:53.887Z,1.60
2022-08-10T18:44:09.955Z,1.10
2022-08-10T18:46:33.972Z,1.17
2022-08-10T18:49:19.498Z,1.08
2022-08-10T18:51:49.395Z,1.90
2022-08-10T18:54:44.496Z,1.23
2022-08-10T18:57:43.246Z,1.30
2022-08-10T19:00:15.368Z,1.30
2022-08-10T19:03:06.367Z,1.20
2022-08-10T19:06:09.219Z,1.15
2022-08-10T19:08:49.666Z,1.10
2022-08-10T19:12:03.650Z,2.20
2022-08-10T19:14:38.644Z,1.60
2022-08-10T19:17:22.407Z,1.08
2022-08-10T19:20:23.270Z,1.30
2022-08-10T19:23:41.364Z,1.30
2022-08-10T19:26:45.029Z,1.30
2022-08-10T19:30:10.703Z,1.20
2022-08-10T19:32:32.147Z,1.17
2022-08-10T19:35:24.493Z,1.58
2022-08-10T19:38:32.025Z,1.20
2022-08-10T19:41:32.059Z,1.13
2022-08-10T19:44:45.062Z,1.40
2022-08-10T19:47:43.028Z,1.50
2022-08-10T19:50:20.852Z,1.27
2022-08-10T19:53:19.317Z,1.20
2022-08-10T19:56:35.835Z,1.30
2022-08-10T20:00:17.316Z,1.50
2022-08-10T20:02:40.461Z,1.25
2022-08-10T20:05:16.006Z,1.25
2022-08-10T20:07:58.179Z,1.38
2022-08-10T20:10:45.133Z,1.15
2022-08-10T20:13:40.823Z,1.30
2022-08-10T20:16:27.244Z,1.40
2022-08-10T20:19:52.736Z,1.90
2022-08-10T20:22:29.536Z,1.25
2022-08-10T20:25:08.655Z,1.52
2022-08-10T20:28:00.537Z,1.30
2022-08-10T20:30:37.836Z,1.40
2022-08-10T20:33:30.210Z,1.58
2022-08-10T20:36:10.008Z,1.48
2022-08-10T20:38:55.931Z,1.45
2022-08-10T20:41:33.857Z,1.30
2022-08-10T20:44:54.096Z,1.25
2022-08-10T20:47:44.227Z,1.50
2022-08-10T20:50:40.366Z,1.30
2022-08-10T20:53:13.962Z,1.60
2022-08-10T20:55:54.487Z,1.40
2022-08-10T20:58:37.877Z,1.40
2022-08-10T21:02:06.937Z,1.92
2022-08-10T21:04:30.747Z,1.35
2022-08-10T21:10:45.495Z,1.67
2022-08-10T21:14:08.211Z,1.40
2022-08-10T21:17:08.152Z,1.30
2022-08-10T21:20:14.389Z,2.13
2022-08-10T21:22:47.183Z,1.40
2022-08-10T21:25:20.419Z,1.48
2022-08-10T21:28:25.219Z,1.60
2022-08-10T21:31:28.097Z,1.58
2022-08-10T21:34:11.649Z,1.50
2022-08-10T21:37:16.331Z,1.60
2022-08-10T21:40:34.656Z,1.40
2022-08-10T21:44:22.887Z,1.30
2022-08-10T21:48:17.598Z,1.27
2022-08-10T21:50:52.010Z,1.10
2022-08-10T21:54:02.908Z,1.40
2022-08-10T21:57:11.855Z,1.40
2022-08-10T22:00:12.610Z,1.65
2022-08-10T22:03:00.627Z,1.70
2022-08-10T22:05:57.734Z,1.70
2022-08-10T22:08:59.139Z,1.52
2022-08-10T22:11:52.996Z,1.30
2022-08-10T22:14:52.302Z,1.70
2022-08-10T22:18:01.185Z,1.30
2022-08-10T22:21:01.265Z,1.42
2022-08-10T22:24:19.022Z,1.52
2022-08-10T22:27:54.104Z,1.48
2022-08-10T22:31:02.629Z,1.58
2022-08-10T22:34:36.522Z,1.75
2022-08-10T22:38:07.641Z,1.50
2022-08-10T22:40:53.855Z,1.30
2022-08-10T22:43:49.776Z,1.30
2022-08-10T22:46:48.347Z,1.15
2022-08-10T22:49:23.985Z,1.50
2022-08-10T22:52:14.258Z,1.27
2022-08-10T22:55:15.235Z,1.33
2022-08-10T22:58:09.390Z,1.48
2022-08-10T23:00:38.421Z,1.35
2022-08-10T23:03:25.786Z,1.50
2022-08-10T23:06:10.692Z,1.15
2022-08-10T23:08:51.099Z,1.55
2022-08-10T23:11:27.409Z,1.10
2022-08-10T23:14:03.236Z,1.20
2022-08-10T23:17:14.177Z,1.73
2022-08-10T23:19:49.354Z,1.25
2022-08-10T23:22:21.751Z,1.50
2022-08-10T23:25:03.444Z,1.42
2022-08-10T23:27:37.534Z,1.48
2022-08-10T23:30:17.609Z,1.30
2022-08-10T23:32:59.010Z,1.20
2022-08-10T23:36:31.003Z,1.52
2022-08-10T23:38:25.357Z,1.27
2022-08-10T23:41:01.446Z,1.77
2022-08-10T23:44:02.905Z,1.55
2022-08-10T23:46:39.894Z,1.40
2022-08-10T23:49:11.647Z,1.60
2022-08-10T23:51:55.985Z,1.40
2022-08-10T23:54:26.479Z,1.20
2022-08-10T23:57:01.375Z,1.40
2022-08-10T23:59:32.178Z,1.50
